createdAt,value
2018-03-23T00:00:35.331Z,2.80
2018-03-23T00:01:41.391Z,2.79
2018-03-23T00:02:47.453Z,2.78
2018-03-23T00:03:53.537Z,2.77
2018-03-23T00:04:59.622Z,2.76
2018-03-23T00:06:05.687Z,2.75
2018-03-23T00:07:11.751Z,2.72
2018-03-23T00:08:17.827Z,2.70
2018-03-23T00:09:23.900Z,2.69
2018-03-23T00:10:29.989Z,2.69
2018-03-23T00:11:36.048Z,2.68
2018-03-23T00:12:42.119Z,2.69
2018-03-23T00:13:48.189Z,2.68
2018-03-23T00:14:54.287Z,2.72
2018-03-23T00:16:00.525Z,2.73
2018-03-23T00:17:06.418Z,2.75
2018-03-23T00:18:12.499Z,2.76
2018-03-23T00:19:18.547Z,2.78
2018-03-23T00:20:24.633Z,2.78
2018-03-23T00:21:30.695Z,2.80
2018-03-23T00:22:36.766Z,2.80
2018-03-23T00:23:42.940Z,2.81
2018-03-23T00:24:48.932Z,2.80
2018-03-23T00:25:54.980Z,2.81
2018-03-23T00:27:01.058Z,2.82
2018-03-23T00:28:07.623Z,2.81
2018-03-23T00:29:13.198Z,2.81
2018-03-23T00:30:19.301Z,2.80
2018-03-23T00:31:25.341Z,2.79
2018-03-23T00:32:31.411Z,2.75
2018-03-23T00:33:37.482Z,2.72
2018-03-23T00:34:43.544Z,2.71
2018-03-23T00:35:49.656Z,2.69
2018-03-23T00:36:55.701Z,2.68
2018-03-23T00:38:01.777Z,2.67
2018-03-23T00:39:07.834Z,2.65
2018-03-23T00:40:13.955Z,2.65
2018-03-23T00:41:19.985Z,2.64
2018-03-23T00:42:26.060Z,2.61
2018-03-23T00:43:32.134Z,2.60
2018-03-23T00:44:38.207Z,2.59
2018-03-23T00:45:44.284Z,2.59
2018-03-23T00:46:50.349Z,2.58
2018-03-23T00:47:56.473Z,2.60
2018-03-23T00:49:02.481Z,2.60
2018-03-23T00:50:08.589Z,2.59
2018-03-23T00:51:14.633Z,2.60
2018-03-23T00:52:20.695Z,2.58
2018-03-23T00:53:26.759Z,2.55
2018-03-23T00:54:32.933Z,2.52
2018-03-23T00:55:38.947Z,2.50
2018-03-23T00:56:44.989Z,2.48
2018-03-23T00:57:51.052Z,2.48
2018-03-23T00:58:57.122Z,2.49
2018-03-23T01:00:03.235Z,2.48
2018-03-23T01:01:09.272Z,2.49
2018-03-23T01:02:15.332Z,2.51
2018-03-23T01:03:21.401Z,2.51
2018-03-23T01:04:27.467Z,2.52
2018-03-23T01:05:33.562Z,2.54
2018-03-23T01:06:39.617Z,2.55
2018-03-23T01:07:45.695Z,2.56
2018-03-23T01:08:51.748Z,2.56
2018-03-23T01:09:57.848Z,2.57
2018-03-23T01:11:03.905Z,2.57
2018-03-23T01:12:09.964Z,2.58
2018-03-23T01:13:16.034Z,2.59
2018-03-23T01:14:22.107Z,2.61
2018-03-23T01:15:28.188Z,2.61
2018-03-23T01:16:34.243Z,2.61
2018-03-23T01:17:40.314Z,2.62
2018-03-23T01:18:46.388Z,2.62
2018-03-23T01:19:52.469Z,2.63
2018-03-23T01:20:58.542Z,2.63
2018-03-23T01:22:04.601Z,2.62
2018-03-23T01:23:10.662Z,2.60
2018-03-23T01:24:16.734Z,2.58
2018-03-23T01:25:22.816Z,2.58
2018-03-23T01:26:28.951Z,2.57
2018-03-23T01:27:34.952Z,2.56
2018-03-23T01:28:41.021Z,2.55
2018-03-23T01:29:47.100Z,2.56
2018-03-23T01:30:53.193Z,2.58
2018-03-23T01:31:59.224Z,2.60
2018-03-23T01:33:05.788Z,2.60
2018-03-23T01:34:11.374Z,2.62
2018-03-23T01:35:17.478Z,2.62
2018-03-23T01:36:23.508Z,2.65
2018-03-23T01:37:29.596Z,2.66
2018-03-23T01:38:35.671Z,2.65
2018-03-23T01:39:41.727Z,2.66
2018-03-23T01:40:47.825Z,2.65
2018-03-23T01:41:53.871Z,2.65
2018-03-23T01:43:00.441Z,2.66
2018-03-23T01:44:06.014Z,2.67
2018-03-23T01:45:12.108Z,2.67
2018-03-23T01:46:18.152Z,2.68
2018-03-23T01:47:24.233Z,2.68
2018-03-23T01:48:30.306Z,2.68
2018-03-23T01:49:36.394Z,2.65
2018-03-23T01:50:42.469Z,2.65
2018-03-23T01:51:48.513Z,2.65
2018-03-23T01:52:54.582Z,2.67
2018-03-23T01:54:00.662Z,2.68
2018-03-23T01:55:06.770Z,2.68
2018-03-23T01:56:12.802Z,2.68
2018-03-23T01:57:18.879Z,2.63
2018-03-23T01:58:24.948Z,2.57
2018-03-23T01:59:31.024Z,2.52
2018-03-23T02:00:37.109Z,2.47
2018-03-23T02:01:43.170Z,2.42
2018-03-23T02:02:49.231Z,2.37
2018-03-23T02:03:55.609Z,2.36
2018-03-23T02:05:01.386Z,2.35
2018-03-23T02:06:07.475Z,2.37
2018-03-23T02:07:13.519Z,2.41
2018-03-23T02:08:19.593Z,2.47
2018-03-23T02:09:25.670Z,2.51
2018-03-23T02:10:31.754Z,2.53
2018-03-23T02:11:37.798Z,2.56
2018-03-23T02:12:43.877Z,2.59
2018-03-23T02:13:49.947Z,2.58
2018-03-23T02:14:56.020Z,2.58
2018-03-23T02:16:02.101Z,2.61
2018-03-23T02:17:08.339Z,2.60
2018-03-23T02:18:14.218Z,2.58
2018-03-23T02:19:20.294Z,2.58
2018-03-23T02:20:26.895Z,2.58
2018-03-23T02:21:32.450Z,2.60
2018-03-23T02:22:38.507Z,2.61
2018-03-23T02:23:44.588Z,2.59
2018-03-23T02:24:50.668Z,2.60
2018-03-23T02:25:56.746Z,2.62
2018-03-23T02:27:02.804Z,2.63
2018-03-23T02:28:08.952Z,2.62
2018-03-23T02:29:14.940Z,2.62
2018-03-23T02:30:21.029Z,2.64
2018-03-23T02:31:27.084Z,2.65
2018-03-23T02:32:33.149Z,2.66
2018-03-23T02:33:39.231Z,2.67
2018-03-23T02:34:45.323Z,2.68
2018-03-23T02:35:51.391Z,2.69
2018-03-23T02:36:57.453Z,2.69
2018-03-23T02:38:03.519Z,2.69
2018-03-23T02:39:10.093Z,2.69
2018-03-23T02:40:15.697Z,2.68
2018-03-23T02:41:21.737Z,2.69
2018-03-23T02:42:27.810Z,2.69
2018-03-23T02:43:33.888Z,2.69
2018-03-23T02:44:39.964Z,2.69
2018-03-23T02:45:46.069Z,2.68
2018-03-23T02:46:52.124Z,2.67
2018-03-23T02:47:58.194Z,2.66
2018-03-23T02:49:04.262Z,2.66
2018-03-23T02:50:10.338Z,2.66
2018-03-23T02:51:16.430Z,2.67
2018-03-23T02:52:22.475Z,2.67
2018-03-23T02:53:28.553Z,2.67
2018-03-23T02:54:34.619Z,2.68
2018-03-23T02:55:41.962Z,2.67
2018-03-23T02:56:46.773Z,2.68
2018-03-23T02:57:53.331Z,2.68
2018-03-23T02:58:58.903Z,2.67
2018-03-23T03:00:04.983Z,2.67
2018-03-23T03:01:11.573Z,2.66
2018-03-23T03:02:17.133Z,2.65
2018-03-23T03:03:23.199Z,2.66
2018-03-23T03:04:29.282Z,2.67
2018-03-23T03:05:35.366Z,2.67
2018-03-23T03:06:41.414Z,2.67
2018-03-23T03:07:47.480Z,2.67
2018-03-23T03:08:53.561Z,2.67
2018-03-23T03:09:59.633Z,2.67
2018-03-23T03:11:05.715Z,2.66
2018-03-23T03:12:11.786Z,2.66
2018-03-23T03:13:17.847Z,2.64
2018-03-23T03:14:23.920Z,2.63
2018-03-23T03:15:30.010Z,2.64
2018-03-23T03:16:36.057Z,2.64
2018-03-23T03:17:42.133Z,2.62
2018-03-23T03:18:48.190Z,2.61
2018-03-23T03:19:54.271Z,2.59
2018-03-23T03:21:00.366Z,2.57
2018-03-23T03:22:06.416Z,2.56
2018-03-23T03:23:12.483Z,2.56
2018-03-23T03:24:18.548Z,2.58
2018-03-23T03:25:24.623Z,2.57
2018-03-23T03:26:30.710Z,2.58
2018-03-23T03:27:36.764Z,2.59
2018-03-23T03:28:42.924Z,2.60
2018-03-23T03:29:48.909Z,2.61
2018-03-23T03:30:55.005Z,2.61
2018-03-23T03:32:01.062Z,2.61
2018-03-23T03:33:07.121Z,2.59
2018-03-23T03:34:13.185Z,2.59
2018-03-23T03:35:19.265Z,2.59
2018-03-23T03:36:25.865Z,2.62
2018-03-23T03:37:31.408Z,2.63
2018-03-23T03:38:37.479Z,2.64
2018-03-23T03:39:43.566Z,2.65
2018-03-23T03:40:49.644Z,2.67
2018-03-23T03:41:55.697Z,2.67
2018-03-23T03:43:01.770Z,2.68
2018-03-23T03:44:08.326Z,2.69
2018-03-23T03:45:13.914Z,2.70
2018-03-23T03:46:20.002Z,2.71
2018-03-23T03:47:26.052Z,2.71
2018-03-23T03:48:32.125Z,2.71
2018-03-23T03:49:38.210Z,2.71
2018-03-23T03:50:44.297Z,2.72
2018-03-23T03:51:50.346Z,2.73
2018-03-23T03:52:56.423Z,2.72
2018-03-23T03:54:02.499Z,2.73
2018-03-23T03:55:08.560Z,2.73
2018-03-23T03:56:14.660Z,2.73
2018-03-23T03:57:20.707Z,2.73
2018-03-23T03:58:26.775Z,2.74
2018-03-23T03:59:32.927Z,2.74
2018-03-23T04:00:38.955Z,2.75
2018-03-23T04:01:45.007Z,2.74
2018-03-23T04:02:51.073Z,2.72
2018-03-23T04:03:57.152Z,2.73
2018-03-23T04:05:03.232Z,2.73
2018-03-23T04:06:09.824Z,2.71
2018-03-23T04:07:15.369Z,2.72
2018-03-23T04:08:21.448Z,2.71
2018-03-23T04:09:27.530Z,2.71
2018-03-23T04:10:33.591Z,2.71
2018-03-23T04:11:39.695Z,2.72
2018-03-23T04:12:45.742Z,2.72
2018-03-23T04:13:52.312Z,2.70
2018-03-23T04:14:57.907Z,2.70
2018-03-23T04:16:03.979Z,2.72
2018-03-23T04:17:10.046Z,2.71
2018-03-23T04:18:16.117Z,2.70
2018-03-23T04:19:22.184Z,2.70
2018-03-23T04:20:28.248Z,2.71
2018-03-23T04:21:34.340Z,2.71
2018-03-23T04:22:40.432Z,2.70
2018-03-23T04:23:46.474Z,2.70
2018-03-23T04:24:52.552Z,2.70
2018-03-23T04:25:58.647Z,2.70
2018-03-23T04:27:04.714Z,2.71
2018-03-23T04:28:10.771Z,2.70
2018-03-23T04:29:16.928Z,2.72
2018-03-23T04:30:22.922Z,2.71
2018-03-23T04:31:29.014Z,2.72
2018-03-23T04:32:35.066Z,2.70
2018-03-23T04:33:41.128Z,2.70
2018-03-23T04:34:47.207Z,2.69
2018-03-23T04:35:53.299Z,2.67
2018-03-23T04:36:59.363Z,2.67
2018-03-23T04:38:05.437Z,2.65
2018-03-23T04:39:11.495Z,2.63
2018-03-23T04:40:17.576Z,2.61
2018-03-23T04:41:24.170Z,2.58
2018-03-23T04:42:29.744Z,2.56
2018-03-23T04:43:35.800Z,2.57
2018-03-23T04:44:41.878Z,2.57
2018-03-23T04:45:47.973Z,2.55
2018-03-23T04:46:54.048Z,2.52
2018-03-23T04:48:00.099Z,2.49
2018-03-23T04:49:06.570Z,2.48
2018-03-23T04:50:12.242Z,2.46
2018-03-23T04:51:19.155Z,2.45
2018-03-23T04:52:24.384Z,2.45
2018-03-23T04:53:30.474Z,2.46
2018-03-23T04:54:36.548Z,2.48
2018-03-23T04:55:42.672Z,2.48
2018-03-23T04:56:48.731Z,2.46
2018-03-23T04:57:54.823Z,2.46
2018-03-23T04:59:00.805Z,2.45
2018-03-23T05:00:06.959Z,2.46
2018-03-23T05:01:12.987Z,2.46
2018-03-23T05:02:19.016Z,2.47
2018-03-23T05:03:25.112Z,2.47
2018-03-23T05:04:31.199Z,2.48
2018-03-23T05:06:43.331Z,2.49
2018-03-23T05:07:49.378Z,2.48
2018-03-23T05:08:55.442Z,2.49
2018-03-23T05:10:02.060Z,2.49
2018-03-23T05:11:07.625Z,2.50
2018-03-23T05:12:13.654Z,2.50
2018-03-23T05:14:26.173Z,2.51
2018-03-23T05:15:31.909Z,2.51
2018-03-23T05:16:38.466Z,2.52
2018-03-23T05:17:44.031Z,2.52
2018-03-23T05:18:50.214Z,2.54
2018-03-23T05:19:56.163Z,2.56
2018-03-23T05:21:02.263Z,2.59
2018-03-23T05:22:08.311Z,2.60
2018-03-23T05:23:14.372Z,2.61
2018-03-23T05:24:20.460Z,2.62
2018-03-23T05:25:26.514Z,2.63
2018-03-23T05:26:32.616Z,2.64
2018-03-23T05:27:38.663Z,2.65
2018-03-23T05:28:44.744Z,2.66
2018-03-23T05:29:50.810Z,2.67
2018-03-23T05:30:56.912Z,2.67
2018-03-23T05:32:02.973Z,2.68
2018-03-23T05:33:09.034Z,2.67
2018-03-23T05:34:15.098Z,2.69
2018-03-23T05:35:21.180Z,2.68
2018-03-23T05:36:27.267Z,2.68
2018-03-23T05:37:33.317Z,2.68
2018-03-23T05:38:39.395Z,2.70
2018-03-23T05:39:45.482Z,2.71
2018-03-23T05:40:51.548Z,2.72
2018-03-23T05:41:57.632Z,2.73
2018-03-23T05:43:03.698Z,2.74
2018-03-23T05:44:09.773Z,2.75
2018-03-23T05:45:15.833Z,2.75
2018-03-23T05:46:21.959Z,2.77
2018-03-23T05:47:27.987Z,2.76
2018-03-23T05:48:34.065Z,2.75
2018-03-23T05:49:40.149Z,2.77
2018-03-23T05:50:46.213Z,2.78
2018-03-23T05:51:52.334Z,2.79
2018-03-23T05:52:58.368Z,2.80
2018-03-23T05:54:04.435Z,2.82
2018-03-23T05:55:10.533Z,2.82
2018-03-23T05:56:16.617Z,2.82
2018-03-23T05:57:22.676Z,2.85
2018-03-23T05:58:28.745Z,2.87
2018-03-23T05:59:34.935Z,2.88
2018-03-23T06:00:40.910Z,2.89
2018-03-23T06:01:47.000Z,2.91
2018-03-23T06:02:53.066Z,2.90
2018-03-23T06:03:59.140Z,2.92
2018-03-23T06:05:05.224Z,2.94
2018-03-23T06:06:11.324Z,2.95
2018-03-23T06:07:17.385Z,2.97
2018-03-23T06:08:23.467Z,3.00
2018-03-23T06:09:29.570Z,3.04
2018-03-23T06:10:36.115Z,3.05
2018-03-23T06:11:41.722Z,3.08
2018-03-23T06:12:47.794Z,3.07
2018-03-23T06:13:53.903Z,3.09
2018-03-23T06:14:59.971Z,3.11
2018-03-23T06:16:06.045Z,3.13
2018-03-23T06:17:12.165Z,3.13
2018-03-23T06:18:18.222Z,3.13
2018-03-23T06:19:24.303Z,3.15
2018-03-23T06:20:30.388Z,3.17
2018-03-23T06:21:36.512Z,3.17
2018-03-23T06:22:42.611Z,3.20
2018-03-23T06:23:48.662Z,3.21
2018-03-23T06:24:54.725Z,3.21
2018-03-23T06:26:01.304Z,3.21
2018-03-23T06:27:06.928Z,3.27
2018-03-23T06:28:12.985Z,3.29
2018-03-23T06:29:19.081Z,3.32
2018-03-23T06:30:25.195Z,3.31
2018-03-23T06:31:31.772Z,3.32
2018-03-23T06:32:37.346Z,3.35
2018-03-23T06:33:43.436Z,3.38
2018-03-23T06:34:49.527Z,3.38
2018-03-23T06:35:55.629Z,3.37
2018-03-23T06:37:02.217Z,3.40
2018-03-23T06:38:07.810Z,3.43
2018-03-23T06:39:14.545Z,3.47
2018-03-23T06:40:20.013Z,3.50
2018-03-23T06:41:26.167Z,3.56
2018-03-23T06:42:32.203Z,3.58
2018-03-23T06:43:38.320Z,3.59
2018-03-23T06:44:44.403Z,3.62
2018-03-23T06:45:50.542Z,3.64
2018-03-23T06:46:56.629Z,3.66
2018-03-23T06:48:02.653Z,3.65
2018-03-23T06:49:08.746Z,3.65
2018-03-23T06:50:14.931Z,3.67
2018-03-23T06:51:20.967Z,3.67
2018-03-23T06:52:27.054Z,3.71
2018-03-23T06:53:33.143Z,3.75
2018-03-23T06:54:39.259Z,3.81
2018-03-23T06:55:45.868Z,3.80
2018-03-23T06:56:51.470Z,3.88
2018-03-23T06:57:57.548Z,3.98
2018-03-23T06:59:03.667Z,4.06
2018-03-23T07:00:09.770Z,4.10
2018-03-23T07:01:15.879Z,4.14
2018-03-23T07:02:22.013Z,4.17
2018-03-23T07:03:28.093Z,4.22
2018-03-23T07:04:34.212Z,4.23
2018-03-23T07:05:40.319Z,4.25
2018-03-23T07:06:46.443Z,4.32
2018-03-23T07:07:53.551Z,4.38
2018-03-23T07:08:58.657Z,4.46
2018-03-23T07:10:04.785Z,4.51
2018-03-23T07:11:10.907Z,4.56
2018-03-23T07:12:17.061Z,4.62
2018-03-23T07:13:23.138Z,4.66
2018-03-23T07:14:29.284Z,4.73
2018-03-23T07:15:35.384Z,4.82
2018-03-23T07:16:41.530Z,4.82
2018-03-23T07:17:47.643Z,4.87
2018-03-23T07:18:53.773Z,4.92
2018-03-23T07:19:59.904Z,4.96
2018-03-23T07:21:06.039Z,5.00
2018-03-23T07:22:12.189Z,4.96
2018-03-23T07:23:18.303Z,4.93
2018-03-23T07:24:24.445Z,4.86
2018-03-23T07:25:30.573Z,4.81
2018-03-23T07:26:36.727Z,4.72
2018-03-23T07:27:42.941Z,4.71
2018-03-23T07:28:48.959Z,4.78
2018-03-23T07:29:55.116Z,4.81
2018-03-23T07:31:01.232Z,4.85
2018-03-23T07:32:07.397Z,4.85
2018-03-23T07:33:13.491Z,5.00
2018-03-23T07:34:19.640Z,5.17
2018-03-23T07:35:25.758Z,5.31
2018-03-23T07:36:31.924Z,5.42
2018-03-23T07:37:38.093Z,5.51
2018-03-23T07:38:44.206Z,5.61
2018-03-23T07:39:50.925Z,5.61
2018-03-23T07:40:56.492Z,5.66
2018-03-23T07:42:02.656Z,5.59
2018-03-23T07:43:08.793Z,5.68
2018-03-23T07:44:14.944Z,5.85
2018-03-23T07:45:21.615Z,5.96
2018-03-23T07:46:27.270Z,6.10
2018-03-23T07:47:33.435Z,6.08
2018-03-23T07:48:39.580Z,5.98
2018-03-23T07:49:45.742Z,5.95
2018-03-23T07:50:52.096Z,6.01
2018-03-23T07:51:58.101Z,5.95
2018-03-23T07:53:04.246Z,5.96
2018-03-23T07:54:10.407Z,5.89
2018-03-23T07:55:16.583Z,5.88
2018-03-23T07:56:22.720Z,5.88
2018-03-23T07:57:28.901Z,5.92
2018-03-23T07:58:35.042Z,5.98
2018-03-23T07:59:41.216Z,6.00
2018-03-23T08:00:47.378Z,5.99
2018-03-23T08:01:55.054Z,6.06
2018-03-23T08:02:59.730Z,6.20
2018-03-23T08:04:05.937Z,6.21
2018-03-23T08:05:12.067Z,6.10
2018-03-23T08:06:18.239Z,6.17
2018-03-23T08:07:24.437Z,6.26
2018-03-23T08:08:30.588Z,6.29
2018-03-23T08:09:36.773Z,6.44
2018-03-23T08:10:42.949Z,6.54
2018-03-23T08:11:49.146Z,6.62
2018-03-23T08:12:55.305Z,6.73
2018-03-23T08:14:01.492Z,6.56
2018-03-23T08:15:07.681Z,6.57
2018-03-23T08:16:13.850Z,6.57
2018-03-23T08:17:20.060Z,6.40
2018-03-23T08:18:26.228Z,6.14
2018-03-23T08:19:32.397Z,6.09
2018-03-23T08:20:38.569Z,6.10
2018-03-23T08:21:44.782Z,6.31
2018-03-23T08:22:51.431Z,6.58
2018-03-23T08:23:57.117Z,7.11
2018-03-23T08:25:03.315Z,7.72
2018-03-23T08:26:09.505Z,8.03
2018-03-23T08:27:15.733Z,8.00
2018-03-23T08:28:21.930Z,8.02
2018-03-23T08:29:28.129Z,7.84
2018-03-23T08:30:34.342Z,7.84
2018-03-23T08:31:40.570Z,7.93
2018-03-23T08:32:46.781Z,7.96
2018-03-23T08:33:52.986Z,8.01
2018-03-23T08:34:59.228Z,7.94
2018-03-23T08:36:05.437Z,7.80
2018-03-23T08:37:11.686Z,7.39
2018-03-23T08:38:17.854Z,6.90
2018-03-23T08:39:24.062Z,6.84
2018-03-23T08:40:30.281Z,6.94
2018-03-23T08:41:36.471Z,6.99
2018-03-23T08:42:42.699Z,7.07
2018-03-23T08:43:48.874Z,7.08
2018-03-23T08:44:55.084Z,6.78
2018-03-23T08:46:01.272Z,6.80
2018-03-23T08:47:07.999Z,6.84
2018-03-23T08:48:13.669Z,6.66
2018-03-23T08:49:19.869Z,6.60
2018-03-23T08:50:26.051Z,6.60
2018-03-23T08:51:32.235Z,6.61
2018-03-23T08:52:38.955Z,6.59
2018-03-23T08:53:44.624Z,6.59
2018-03-23T08:54:50.823Z,6.56
2018-03-23T08:55:57.008Z,6.58
2018-03-23T08:57:03.224Z,6.65
2018-03-23T08:58:09.397Z,6.70
2018-03-23T08:59:15.597Z,6.82
2018-03-23T09:00:21.784Z,6.83
2018-03-23T09:01:27.973Z,6.83
2018-03-23T09:02:34.183Z,6.77
2018-03-23T09:03:40.356Z,6.70
2018-03-23T09:04:46.553Z,6.69
2018-03-23T09:05:52.735Z,6.77
2018-03-23T09:06:58.943Z,6.89
2018-03-23T09:08:05.109Z,6.85
2018-03-23T09:09:11.304Z,6.88
2018-03-23T09:10:17.491Z,6.99
2018-03-23T09:11:23.686Z,6.98
2018-03-23T09:12:29.906Z,7.05
2018-03-23T09:13:36.076Z,7.27
2018-03-23T09:14:42.303Z,7.21
2018-03-23T09:15:48.497Z,7.33
2018-03-23T09:16:54.728Z,7.48
2018-03-23T09:18:01.418Z,7.43
2018-03-23T09:19:07.140Z,7.63
2018-03-23T09:20:13.357Z,7.95
2018-03-23T09:21:19.590Z,8.12
2018-03-23T09:22:25.837Z,8.34
2018-03-23T09:23:32.044Z,8.48
2018-03-23T09:24:38.275Z,8.42
2018-03-23T09:25:44.510Z,8.41
2018-03-23T09:26:50.775Z,8.40
2018-03-23T09:27:57.007Z,8.43
2018-03-23T09:29:03.231Z,8.41
2018-03-23T09:30:09.469Z,8.36
2018-03-23T09:31:15.773Z,8.25
2018-03-23T09:32:21.985Z,8.26
2018-03-23T09:33:28.172Z,8.27
2018-03-23T09:34:34.418Z,8.31
2018-03-23T09:35:40.644Z,8.27
2018-03-23T09:36:47.375Z,8.23
2018-03-23T09:37:53.142Z,8.27
2018-03-23T09:38:59.350Z,8.48
2018-03-23T09:40:05.586Z,8.80
2018-03-23T09:41:11.827Z,8.97
2018-03-23T09:42:18.107Z,9.04
2018-03-23T09:43:24.311Z,9.03
2018-03-23T09:44:30.565Z,8.94
2018-03-23T09:45:36.832Z,8.89
2018-03-23T09:46:43.113Z,8.92
2018-03-23T09:47:49.334Z,9.01
2018-03-23T09:48:55.576Z,8.88
2018-03-23T09:50:01.846Z,8.89
2018-03-23T09:51:08.089Z,8.88
2018-03-23T09:52:14.357Z,8.80
2018-03-23T09:53:20.598Z,8.96
2018-03-23T09:54:26.930Z,9.14
2018-03-23T09:55:33.138Z,9.23
2018-03-23T09:56:39.393Z,9.32
2018-03-23T09:57:45.677Z,9.40
2018-03-23T09:58:51.932Z,9.53
2018-03-23T09:59:58.212Z,9.66
2018-03-23T10:01:04.508Z,9.75
2018-03-23T10:02:10.765Z,9.73
2018-03-23T10:03:17.022Z,9.66
2018-03-23T10:04:23.312Z,9.67
2018-03-23T10:05:29.635Z,9.79
2018-03-23T10:06:35.877Z,9.68
2018-03-23T10:07:42.166Z,9.59
2018-03-23T10:08:48.431Z,9.33
2018-03-23T10:09:55.202Z,9.36
2018-03-23T10:11:00.958Z,9.53
2018-03-23T10:12:07.262Z,9.53
2018-03-23T10:13:13.568Z,9.47
2018-03-23T10:14:19.784Z,9.46
2018-03-23T10:15:26.065Z,9.55
2018-03-23T10:16:32.340Z,9.72
2018-03-23T10:17:38.652Z,9.84
2018-03-23T10:18:44.924Z,9.83
2018-03-23T10:19:51.202Z,9.91
2018-03-23T10:20:57.487Z,10.10
2018-03-23T10:22:03.803Z,10.15
2018-03-23T10:23:10.090Z,10.04
2018-03-23T10:24:16.355Z,10.04
2018-03-23T10:25:22.662Z,10.04
2018-03-23T10:26:28.947Z,10.02
2018-03-23T10:27:35.262Z,9.99
2018-03-23T10:28:41.550Z,10.05
2018-03-23T10:29:47.830Z,10.12
2018-03-23T10:30:54.119Z,10.28
2018-03-23T10:32:00.424Z,10.21
2018-03-23T10:33:06.752Z,10.15
2018-03-23T10:34:13.015Z,10.04
2018-03-23T10:35:19.326Z,9.82
2018-03-23T10:36:25.607Z,9.81
2018-03-23T10:37:31.913Z,9.75
2018-03-23T10:38:38.184Z,9.75
2018-03-23T10:39:44.477Z,9.80
2018-03-23T10:40:50.771Z,9.96
2018-03-23T10:41:57.063Z,10.18
2018-03-23T10:43:03.376Z,10.45
2018-03-23T10:44:09.667Z,10.71
2018-03-23T10:45:15.989Z,10.92
2018-03-23T10:46:22.292Z,11.18
2018-03-23T10:47:28.639Z,11.22
2018-03-23T10:48:34.947Z,11.27
2018-03-23T10:49:41.271Z,11.21
2018-03-23T10:50:48.582Z,11.22
2018-03-23T10:51:53.914Z,11.21
2018-03-23T10:53:00.260Z,11.16
2018-03-23T10:54:06.567Z,11.07
2018-03-23T10:55:12.893Z,11.10
2018-03-23T10:56:19.235Z,11.13
2018-03-23T10:57:25.582Z,11.19
2018-03-23T10:58:32.403Z,11.42
2018-03-23T10:59:39.268Z,11.58
2018-03-23T11:00:44.677Z,11.76
2018-03-23T11:01:50.959Z,12.00
2018-03-23T11:02:57.342Z,12.11
2018-03-23T11:04:03.698Z,12.33
2018-03-23T11:05:10.066Z,12.50
2018-03-23T11:06:16.450Z,12.49
2018-03-23T11:07:22.831Z,12.66
2018-03-23T11:08:29.216Z,12.88
2018-03-23T11:09:35.585Z,12.71
2018-03-23T11:10:41.974Z,12.68
2018-03-23T11:11:48.394Z,12.90
2018-03-23T11:12:54.986Z,13.07
2018-03-23T11:14:01.165Z,13.19
2018-03-23T11:15:07.567Z,13.29
2018-03-23T11:16:13.969Z,13.46
2018-03-23T11:17:20.364Z,13.54
2018-03-23T11:18:26.792Z,13.58
2018-03-23T11:19:33.182Z,13.49
2018-03-23T11:20:39.584Z,13.23
2018-03-23T11:21:45.989Z,12.98
2018-03-23T11:22:52.394Z,12.90
2018-03-23T11:23:58.760Z,12.67
2018-03-23T11:25:05.166Z,12.60
2018-03-23T11:26:11.542Z,12.69
2018-03-23T11:27:17.938Z,12.68
2018-03-23T11:28:24.355Z,12.82
2018-03-23T11:29:30.748Z,13.13
2018-03-23T11:30:37.165Z,13.19
2018-03-23T11:31:43.590Z,13.06
2018-03-23T11:32:50.012Z,13.10
2018-03-23T11:33:56.439Z,13.20
2018-03-23T11:35:02.930Z,13.25
2018-03-23T11:36:09.261Z,13.21
2018-03-23T11:37:15.682Z,13.43
2018-03-23T11:38:22.124Z,13.62
2018-03-23T11:39:28.526Z,13.56
2018-03-23T11:40:34.939Z,13.65
2018-03-23T11:41:41.369Z,13.70
2018-03-23T11:42:47.786Z,13.74
2018-03-23T11:43:54.225Z,13.76
2018-03-23T11:45:00.636Z,13.67
2018-03-23T11:46:07.053Z,13.37
2018-03-23T11:47:13.475Z,13.30
2018-03-23T11:48:19.918Z,13.18
2018-03-23T11:49:26.321Z,13.27
2018-03-23T11:50:33.214Z,13.24
2018-03-23T11:51:39.182Z,13.02
2018-03-23T11:52:45.546Z,12.91
2018-03-23T11:53:51.948Z,12.70
2018-03-23T11:54:58.329Z,12.56
2018-03-23T11:56:04.725Z,12.69
2018-03-23T11:57:11.117Z,12.83
2018-03-23T11:58:17.556Z,13.12
2018-03-23T11:59:23.945Z,13.23
2018-03-23T12:00:30.351Z,13.63
2018-03-23T12:01:36.763Z,13.73
2018-03-23T12:02:43.187Z,13.81
2018-03-23T12:03:49.617Z,13.79
2018-03-23T12:04:56.049Z,13.47
2018-03-23T12:06:02.429Z,13.09
2018-03-23T12:07:08.932Z,12.85
2018-03-23T12:08:15.754Z,12.77
2018-03-23T12:09:21.677Z,12.77
2018-03-23T12:10:28.061Z,12.75
2018-03-23T12:11:34.454Z,12.62
2018-03-23T12:12:40.931Z,12.55
2018-03-23T12:13:47.264Z,12.44
2018-03-23T12:14:53.629Z,12.52
2018-03-23T12:16:00.023Z,12.49
2018-03-23T12:17:06.408Z,12.43
2018-03-23T12:18:12.817Z,12.20
2018-03-23T12:19:19.163Z,12.19
2018-03-23T12:20:25.535Z,12.01
2018-03-23T12:21:31.988Z,11.90
2018-03-23T12:22:38.282Z,11.57
2018-03-23T12:23:44.675Z,11.26
2018-03-23T12:24:50.994Z,11.06
2018-03-23T12:25:57.841Z,10.91
2018-03-23T12:27:03.708Z,10.98
2018-03-23T12:28:10.078Z,10.94
2018-03-23T12:29:16.419Z,10.87
2018-03-23T12:30:22.751Z,10.90
2018-03-23T12:31:29.104Z,10.90
2018-03-23T12:32:35.429Z,10.84
2018-03-23T12:33:41.796Z,10.70
2018-03-23T12:34:48.176Z,10.51
2018-03-23T12:35:54.427Z,10.29
2018-03-23T12:37:00.747Z,10.09
2018-03-23T12:38:07.110Z,10.05
2018-03-23T12:39:13.397Z,9.86
2018-03-23T12:40:19.670Z,9.78
2018-03-23T12:41:25.960Z,9.72
2018-03-23T12:42:32.254Z,9.78
2018-03-23T12:43:38.593Z,9.78
2018-03-23T12:44:45.331Z,9.75
2018-03-23T12:45:51.127Z,9.76
2018-03-23T12:46:57.402Z,9.80
2018-03-23T12:48:03.702Z,9.87
2018-03-23T12:49:10.506Z,9.93
2018-03-23T12:50:16.268Z,9.93
2018-03-23T12:51:22.557Z,10.00
2018-03-23T12:52:28.926Z,10.06
2018-03-23T12:53:35.139Z,10.13
2018-03-23T12:54:41.393Z,10.16
2018-03-23T12:55:47.677Z,10.16
2018-03-23T12:56:53.955Z,10.11
2018-03-23T12:58:00.229Z,10.07
2018-03-23T12:59:06.521Z,9.98
2018-03-23T13:00:12.778Z,9.93
2018-03-23T13:01:19.048Z,9.89
2018-03-23T13:02:25.313Z,9.83
2018-03-23T13:03:31.589Z,9.77
2018-03-23T13:04:37.831Z,9.70
2018-03-23T13:05:44.102Z,9.66
2018-03-23T13:06:50.359Z,9.64
2018-03-23T13:07:56.808Z,9.52
2018-03-23T13:09:02.965Z,9.45
2018-03-23T13:10:09.129Z,9.35
2018-03-23T13:11:15.568Z,9.31
2018-03-23T13:12:21.640Z,9.25
2018-03-23T13:13:27.898Z,9.27
2018-03-23T13:14:34.135Z,9.18
2018-03-23T13:15:40.933Z,9.17
2018-03-23T13:16:46.615Z,9.10
2018-03-23T13:17:52.941Z,9.10
2018-03-23T13:18:59.140Z,8.84
2018-03-23T13:20:05.371Z,8.88
2018-03-23T13:21:11.601Z,8.87
2018-03-23T13:22:17.829Z,8.90
2018-03-23T13:23:24.076Z,8.91
2018-03-23T13:24:30.332Z,8.90
2018-03-23T13:25:36.555Z,8.91
2018-03-23T13:26:42.802Z,8.98
2018-03-23T13:27:49.049Z,9.11
2018-03-23T13:28:55.330Z,9.30
2018-03-23T13:30:01.539Z,9.44
2018-03-23T13:31:07.779Z,9.61
2018-03-23T13:32:14.049Z,9.84
2018-03-23T13:33:20.319Z,10.07
2018-03-23T13:34:26.597Z,10.32
2018-03-23T13:35:33.381Z,10.42
2018-03-23T13:36:39.117Z,10.39
2018-03-23T13:37:45.406Z,10.37
2018-03-23T13:38:51.698Z,10.40
2018-03-23T13:39:57.975Z,10.45
2018-03-23T13:41:04.260Z,10.59
2018-03-23T13:42:10.549Z,10.72
2018-03-23T13:43:16.942Z,10.83
2018-03-23T13:44:23.156Z,10.82
2018-03-23T13:45:29.927Z,10.82
2018-03-23T13:46:35.736Z,10.80
2018-03-23T13:47:42.024Z,10.91
2018-03-23T13:48:48.356Z,11.04
2018-03-23T13:49:54.705Z,11.11
2018-03-23T13:51:00.959Z,11.03
2018-03-23T13:52:07.243Z,11.03
2018-03-23T13:53:13.571Z,11.04
2018-03-23T13:54:19.888Z,11.05
2018-03-23T13:55:26.178Z,10.90
2018-03-23T13:56:32.486Z,10.97
2018-03-23T13:57:38.791Z,11.01
2018-03-23T13:58:45.111Z,11.00
2018-03-23T13:59:51.399Z,11.01
2018-03-23T14:00:57.694Z,10.93
2018-03-23T14:02:04.005Z,10.90
2018-03-23T14:03:10.294Z,10.87
2018-03-23T14:04:16.620Z,10.81
2018-03-23T14:05:22.918Z,10.77
2018-03-23T14:06:29.188Z,10.68
2018-03-23T14:07:35.978Z,10.52
2018-03-23T14:08:41.788Z,10.39
2018-03-23T14:09:48.055Z,10.28
2018-03-23T14:10:54.335Z,10.21
2018-03-23T14:12:00.610Z,10.19
2018-03-23T14:13:06.888Z,10.08
2018-03-23T14:14:13.204Z,10.15
2018-03-23T14:15:19.465Z,10.10
2018-03-23T14:16:25.733Z,9.93
2018-03-23T14:17:32.015Z,9.97
2018-03-23T14:18:38.302Z,10.00
2018-03-23T14:19:45.595Z,9.92
2018-03-23T14:20:50.869Z,9.87
2018-03-23T14:21:57.118Z,9.83
2018-03-23T14:23:03.388Z,9.89
2018-03-23T14:24:09.694Z,9.94
2018-03-23T14:25:15.946Z,9.89
2018-03-23T14:26:22.515Z,9.88
2018-03-23T14:27:28.491Z,9.85
2018-03-23T14:28:34.748Z,9.80
2018-03-23T14:29:41.056Z,9.73
2018-03-23T14:30:47.293Z,9.76
2018-03-23T14:31:53.575Z,9.72
2018-03-23T14:32:59.836Z,9.67
2018-03-23T14:34:06.117Z,9.67
2018-03-23T14:35:12.373Z,9.63
2018-03-23T14:36:18.635Z,9.54